sensor_id;sensor_type;location;lat;lon;timestamp;pressure;altitude;pressure_sealevel;temperature;humidity
3812;BME280;1921;49.368;11.068;2024-01-30T00:01:52;99030.09;;;0.40;89.16
3812;BME280;1921;49.368;11.068;2024-01-30T00:04:18;99079.69;;;0.73;89.15
3812;BME280;1921;49.368;11.068;2024-01-30T00:06:45;98865.31;;;-0.47;88.93
3812;BME280;1921;49.368;11.068;2024-01-30T00:09:11;98832.72;;;-0.78;88.91
3812;BME280;1921;49.368;11.068;2024-01-30T00:11:37;99084.63;;;0.94;88.78
3812;BME280;1921;49.368;11.068;2024-01-30T00:14:04;99141.53;;;1.19;88.79
3812;BME280;1921;49.368;11.068;2024-01-30T00:16:30;99001.59;;;0.29;88.62
3812;BME280;1921;49.368;11.068;2024-01-30T00:18:56;99022.13;;;0.29;87.87
3812;BME280;1921;49.368;11.068;2024-01-30T00:21:22;99012.59;;;0.31;87.65
3812;BME280;1921;49.368;11.068;2024-01-30T00:23:47;98957.38;;;-0.10;87.60
3812;BME280;1921;49.368;11.068;2024-01-30T00:26:14;98872.94;;;-0.80;87.24
3812;BME280;1921;49.368;11.068;2024-01-30T00:28:43;98900.78;;;-0.57;87.67
3812;BME280;1921;49.368;11.068;2024-01-30T00:31:09;98876.75;;;-0.72;87.31
3812;BME280;1921;49.368;11.068;2024-01-30T00:33:41;98941.34;;;-0.31;87.58
3812;BME280;1921;49.368;11.068;2024-01-30T00:36:09;98903.13;;;-0.52;87.92
3812;BME280;1921;49.368;11.068;2024-01-30T00:38:35;99045.06;;;0.32;89.39
3812;BME280;1921;49.368;11.068;2024-01-30T00:41:00;98924.22;;;-0.30;88.41
3812;BME280;1921;49.368;11.068;2024-01-30T00:43:28;98839.88;;;-0.68;88.69
3812;BME280;1921;49.368;11.068;2024-01-30T00:45:53;98804.38;;;-0.75;88.76
3812;BME280;1921;49.368;11.068;2024-01-30T00:48:19;98984.53;;;0.28;89.39
3812;BME280;1921;49.368;11.068;2024-01-30T00:50:45;98989.38;;;0.16;90.01
3812;BME280;1921;49.368;11.068;2024-01-30T00:53:11;98954.72;;;-0.08;90.13
3812;BME280;1921;49.368;11.068;2024-01-30T00:55:37;99014.31;;;0.30;90.17
3812;BME280;1921;49.368;11.068;2024-01-30T00:58:03;99053.81;;;0.61;90.42
3812;BME280;1921;49.368;11.068;2024-01-30T01:00:29;98825.09;;;-0.97;89.54
3812;BME280;1921;49.368;11.068;2024-01-30T01:02:59;98862.84;;;-0.66;89.33
3812;BME280;1921;49.368;11.068;2024-01-30T01:05:25;98855.88;;;-0.82;89.13
3812;BME280;1921;49.368;11.068;2024-01-30T01:07:51;98939.44;;;-0.10;89.55
3812;BME280;1921;49.368;11.068;2024-01-30T01:10:17;98992.47;;;0.06;89.52
3812;BME280;1921;49.368;11.068;2024-01-30T01:12:44;98978.53;;;0.11;89.33
3812;BME280;1921;49.368;11.068;2024-01-30T01:15:10;98995.44;;;0.15;88.54
3812;BME280;1921;49.368;11.068;2024-01-30T01:17:37;99066.06;;;0.56;88.49
3812;BME280;1921;49.368;11.068;2024-01-30T01:20:04;98798.16;;;-1.22;88.28
3812;BME280;1921;49.368;11.068;2024-01-30T01:22:31;99086.38;;;0.43;88.82
3812;BME280;1921;49.368;11.068;2024-01-30T01:24:57;98814.41;;;-1.23;88.97
3812;BME280;1921;49.368;11.068;2024-01-30T01:27:23;98959.50;;;-0.35;88.96
3812;BME280;1921;49.368;11.068;2024-01-30T01:29:48;98908.09;;;-0.67;89.64
3812;BME280;1921;49.368;11.068;2024-01-30T01:32:14;98945.03;;;-0.53;90.08
3812;BME280;1921;49.368;11.068;2024-01-30T01:34:40;99020.03;;;0.02;90.46
3812;BME280;1921;49.368;11.068;2024-01-30T01:37:05;98826.81;;;-1.15;90.35
3812;BME280;1921;49.368;11.068;2024-01-30T01:39:32;98947.81;;;-0.23;90.23
3812;BME280;1921;49.368;11.068;2024-01-30T01:41:58;98897.56;;;-0.61;90.76
3812;BME280;1921;49.368;11.068;2024-01-30T01:44:24;98807.94;;;-0.95;89.97
3812;BME280;1921;49.368;11.068;2024-01-30T01:46:51;98780.00;;;-1.17;88.77
3812;BME280;1921;49.368;11.068;2024-01-30T01:49:18;98992.88;;;-0.02;89.54
3812;BME280;1921;49.368;11.068;2024-01-30T01:51:46;99050.44;;;0.60;90.00
3812;BME280;1921;49.368;11.068;2024-01-30T01:54:14;98895.81;;;-0.43;89.07
3812;BME280;1921;49.368;11.068;2024-01-30T01:56:40;98987.41;;;0.39;88.63
3812;BME280;1921;49.368;11.068;2024-01-30T01:59:08;98982.38;;;0.53;88.17
3812;BME280;1921;49.368;11.068;2024-01-30T02:01:36;98682.16;;;-1.22;87.61
3812;BME280;1921;49.368;11.068;2024-01-30T02:04:02;98588.78;;;-1.81;87.93
3812;BME280;1921;49.368;11.068;2024-01-30T02:06:28;99043.06;;;1.19;87.20
3812;BME280;1921;49.368;11.068;2024-01-30T02:08:54;98884.25;;;0.32;87.30
3812;BME280;1921;49.368;11.068;2024-01-30T02:11:21;98976.44;;;1.00;86.55
3812;BME280;1921;49.368;11.068;2024-01-30T02:13:49;99052.50;;;1.80;83.80
3812;BME280;1921;49.368;11.068;2024-01-30T02:16:14;98918.94;;;1.18;81.69
3812;BME280;1921;49.368;11.068;2024-01-30T02:18:40;98815.56;;;0.53;80.85
3812;BME280;1921;49.368;11.068;2024-01-30T02:21:10;99014.59;;;1.83;80.33
3812;BME280;1921;49.368;11.068;2024-01-30T02:23:36;98966.13;;;1.31;81.14
3812;BME280;1921;49.368;11.068;2024-01-30T02:26:03;98788.59;;;0.14;81.37
3812;BME280;1921;49.368;11.068;2024-01-30T02:28:29;99041.25;;;1.67;80.90
3812;BME280;1921;49.368;11.068;2024-01-30T02:30:54;98923.50;;;0.97;81.94
3812;BME280;1921;49.368;11.068;2024-01-30T02:33:20;98886.66;;;0.67;81.47
3812;BME280;1921;49.368;11.068;2024-01-30T02:35:48;98951.09;;;0.94;81.96
3812;BME280;1921;49.368;11.068;2024-01-30T02:38:15;98878.97;;;0.67;82.07
3812;BME280;1921;49.368;11.068;2024-01-30T02:40:41;98971.53;;;1.27;82.60
3812;BME280;1921;49.368;11.068;2024-01-30T02:43:07;98894.03;;;0.57;82.44
3812;BME280;1921;49.368;11.068;2024-01-30T02:45:33;98882.28;;;0.53;82.58
3812;BME280;1921;49.368;11.068;2024-01-30T02:47:58;99079.91;;;1.65;82.90
3812;BME280;1921;49.368;11.068;2024-01-30T02:50:24;98915.50;;;0.56;83.33
3812;BME280;1921;49.368;11.068;2024-01-30T02:52:50;98910.84;;;0.47;83.39
3812;BME280;1921;49.368;11.068;2024-01-30T02:55:15;98864.31;;;0.21;83.78
3812;BME280;1921;49.368;11.068;2024-01-30T02:57:43;98947.03;;;0.74;83.81
3812;BME280;1921;49.368;11.068;2024-01-30T03:00:10;98920.09;;;0.49;83.97
3812;BME280;1921;49.368;11.068;2024-01-30T03:02:36;98868.09;;;0.14;84.53
3812;BME280;1921;49.368;11.068;2024-01-30T03:05:03;99009.50;;;1.06;84.85
3812;BME280;1921;49.368;11.068;2024-01-30T03:07:31;98801.56;;;-0.20;85.07
3812;BME280;1921;49.368;11.068;2024-01-30T03:09:57;98972.38;;;0.64;85.20
3812;BME280;1921;49.368;11.068;2024-01-30T03:12:23;98980.97;;;0.79;85.68
3812;BME280;1921;49.368;11.068;2024-01-30T03:14:49;98946.47;;;0.69;86.08
3812;BME280;1921;49.368;11.068;2024-01-30T03:17:15;99007.97;;;0.86;85.95
3812;BME280;1921;49.368;11.068;2024-01-30T03:19:41;98942.06;;;0.71;85.89
3812;BME280;1921;49.368;11.068;2024-01-30T03:22:07;98846.81;;;0.12;86.49
3812;BME280;1921;49.368;11.068;2024-01-30T03:24:32;98987.19;;;0.91;86.57
3812;BME280;1921;49.368;11.068;2024-01-30T03:26:58;98737.34;;;-0.50;86.94
3812;BME280;1921;49.368;11.068;2024-01-30T03:29:24;98944.03;;;0.50;86.58
3812;BME280;1921;49.368;11.068;2024-01-30T03:31:49;98969.25;;;0.75;86.94
3812;BME280;1921;49.368;11.068;2024-01-30T03:34:15;98808.13;;;0.01;86.18
3812;BME280;1921;49.368;11.068;2024-01-30T03:36:41;98899.50;;;0.51;86.02
3812;BME280;1921;49.368;11.068;2024-01-30T03:39:07;98946.38;;;0.70;85.67
3812;BME280;1921;49.368;11.068;2024-01-30T03:41:32;98903.72;;;0.52;85.77
3812;BME280;1921;49.368;11.068;2024-01-30T03:43:58;98868.38;;;0.41;85.44
3812;BME280;1921;49.368;11.068;2024-01-30T03:46:24;98928.56;;;0.67;85.80
3812;BME280;1921;49.368;11.068;2024-01-30T03:48:50;98859.91;;;0.23;85.66
3812;BME280;1921;49.368;11.068;2024-01-30T03:51:16;98814.22;;;-0.02;86.10
3812;BME280;1921;49.368;11.068;2024-01-30T03:53:42;98853.38;;;0.18;85.41
3812;BME280;1921;49.368;11.068;2024-01-30T03:56:09;99030.38;;;1.00;85.62
3812;BME280;1921;49.368;11.068;2024-01-30T03:58:35;98935.09;;;0.57;86.24
3812;BME280;1921;49.368;11.068;2024-01-30T04:01:01;98952.59;;;0.82;86.28
3812;BME280;1921;49.368;11.068;2024-01-30T04:03:26;99082.56;;;1.48;86.27
3812;BME280;1921;49.368;11.068;2024-01-30T04:05:53;98889.25;;;0.51;86.44
3812;BME280;1921;49.368;11.068;2024-01-30T04:08:19;98756.81;;;-0.31;86.13
3812;BME280;1921;49.368;11.068;2024-01-30T04:10:45;98829.97;;;0.08;86.73
3812;BME280;1921;49.368;11.068;2024-01-30T04:13:11;98820.13;;;0.01;86.99
3812;BME280;1921;49.368;11.068;2024-01-30T04:15:36;98943.28;;;0.79;87.02
3812;BME280;1921;49.368;11.068;2024-01-30T04:18:02;98973.88;;;1.00;86.66
3812;BME280;1921;49.368;11.068;2024-01-30T04:20:30;98995.31;;;1.30;86.58
3812;BME280;1921;49.368;11.068;2024-01-30T04:22:55;99017.75;;;1.43;86.37
3812;BME280;1921;49.368;11.068;2024-01-30T04:25:21;98851.66;;;0.34;86.29
3812;BME280;1921;49.368;11.068;2024-01-30T04:27:47;98984.63;;;1.22;86.67
3812;BME280;1921;49.368;11.068;2024-01-30T04:30:14;98955.22;;;1.12;86.63
3812;BME280;1921;49.368;11.068;2024-01-30T04:32:39;98942.19;;;0.99;86.37
3812;BME280;1921;49.368;11.068;2024-01-30T04:35:06;98948.53;;;0.94;86.19
3812;BME280;1921;49.368;11.068;2024-01-30T04:37:31;98930.03;;;1.03;85.98
3812;BME280;1921;49.368;11.068;2024-01-30T04:39:57;98891.03;;;0.80;85.67
3812;BME280;1921;49.368;11.068;2024-01-30T04:42:23;98948.84;;;1.03;85.42
3812;BME280;1921;49.368;11.068;2024-01-30T04:44:49;99005.94;;;1.24;86.33
3812;BME280;1921;49.368;11.068;2024-01-30T04:47:15;98953.38;;;1.14;86.05
3812;BME280;1921;49.368;11.068;2024-01-30T04:49:41;98917.44;;;0.98;85.59
3812;BME280;1921;49.368;11.068;2024-01-30T04:52:08;98859.44;;;0.64;84.79
3812;BME280;1921;49.368;11.068;2024-01-30T04:54:35;98774.94;;;-0.02;85.13
3812;BME280;1921;49.368;11.068;2024-01-30T04:57:01;98910.06;;;0.92;85.69
3812;BME280;1921;49.368;11.068;2024-01-30T04:59:27;99073.78;;;1.98;84.74
3812;BME280;1921;49.368;11.068;2024-01-30T05:01:53;99047.22;;;1.83;84.61
3812;BME280;1921;49.368;11.068;2024-01-30T05:04:19;99012.69;;;1.57;85.06
3812;BME280;1921;49.368;11.068;2024-01-30T05:06:45;98884.66;;;0.88;84.19
3812;BME280;1921;49.368;11.068;2024-01-30T05:09:10;99060.44;;;1.91;85.16
3812;BME280;1921;49.368;11.068;2024-01-30T05:11:40;98788.75;;;0.27;84.47
3812;BME280;1921;49.368;11.068;2024-01-30T05:14:07;99091.88;;;2.12;85.08
3812;BME280;1921;49.368;11.068;2024-01-30T05:16:34;99018.69;;;1.72;84.00
3812;BME280;1921;49.368;11.068;2024-01-30T05:19:00;99067.91;;;1.96;83.79
3812;BME280;1921;49.368;11.068;2024-01-30T05:21:25;98971.78;;;1.22;84.22
3812;BME280;1921;49.368;11.068;2024-01-30T05:23:51;99029.19;;;1.53;84.37
3812;BME280;1921;49.368;11.068;2024-01-30T05:26:17;99114.94;;;2.13;84.51
3812;BME280;1921;49.368;11.068;2024-01-30T05:28:43;98985.59;;;1.35;84.01
3812;BME280;1921;49.368;11.068;2024-01-30T05:31:10;99062.53;;;1.84;84.11
3812;BME280;1921;49.368;11.068;2024-01-30T05:33:36;98903.31;;;0.60;84.06
3812;BME280;1921;49.368;11.068;2024-01-30T05:36:02;99087.75;;;1.94;84.25
3812;BME280;1921;49.368;11.068;2024-01-30T05:38:28;98895.03;;;0.39;84.29
3812;BME280;1921;49.368;11.068;2024-01-30T05:40:54;98882.69;;;0.45;84.06
3812;BME280;1921;49.368;11.068;2024-01-30T05:43:20;98838.66;;;0.21;84.59
3812;BME280;1921;49.368;11.068;2024-01-30T05:45:46;98972.34;;;1.12;84.31
3812;BME280;1921;49.368;11.068;2024-01-30T05:48:11;99055.13;;;1.64;84.75
3812;BME280;1921;49.368;11.068;2024-01-30T05:50:37;98946.34;;;0.86;84.38
3812;BME280;1921;49.368;11.068;2024-01-30T05:53:03;98945.69;;;0.98;84.42
3812;BME280;1921;49.368;11.068;2024-01-30T05:55:29;98865.22;;;0.36;84.48
3812;BME280;1921;49.368;11.068;2024-01-30T05:57:54;98890.22;;;0.64;84.63
3812;BME280;1921;49.368;11.068;2024-01-30T06:00:21;98967.72;;;1.02;84.95
3812;BME280;1921;49.368;11.068;2024-01-30T06:02:46;98996.63;;;1.22;85.31
3812;BME280;1921;49.368;11.068;2024-01-30T06:05:12;99040.13;;;1.56;85.21
3812;BME280;1921;49.368;11.068;2024-01-30T06:07:38;98901.00;;;0.71;84.85
3812;BME280;1921;49.368;11.068;2024-01-30T06:10:04;99022.38;;;1.36;85.24
3812;BME280;1921;49.368;11.068;2024-01-30T06:12:30;98857.59;;;0.35;85.45
3812;BME280;1921;49.368;11.068;2024-01-30T06:14:56;98902.06;;;0.67;85.32
3812;BME280;1921;49.368;11.068;2024-01-30T06:17:23;98959.53;;;0.96;85.48
3812;BME280;1921;49.368;11.068;2024-01-30T06:19:49;98768.09;;;-0.17;84.62
3812;BME280;1921;49.368;11.068;2024-01-30T06:22:16;99007.66;;;1.24;84.67
3812;BME280;1921;49.368;11.068;2024-01-30T06:24:42;98884.03;;;0.52;84.39
3812;BME280;1921;49.368;11.068;2024-01-30T06:27:10;98956.28;;;1.08;83.91
3812;BME280;1921;49.368;11.068;2024-01-30T06:29:36;98901.31;;;0.80;83.73
3812;BME280;1921;49.368;11.068;2024-01-30T06:32:02;98958.53;;;1.14;83.94
3812;BME280;1921;49.368;11.068;2024-01-30T06:34:28;98979.63;;;1.35;84.22
3812;BME280;1921;49.368;11.068;2024-01-30T06:36:54;98967.66;;;1.20;84.18
3812;BME280;1921;49.368;11.068;2024-01-30T06:39:20;98934.94;;;1.07;83.80
3812;BME280;1921;49.368;11.068;2024-01-30T06:41:46;98988.59;;;1.28;83.95
3812;BME280;1921;49.368;11.068;2024-01-30T06:44:12;98984.13;;;1.31;83.79
3812;BME280;1921;49.368;11.068;2024-01-30T06:46:38;98911.91;;;0.74;83.63
3812;BME280;1921;49.368;11.068;2024-01-30T06:49:04;98744.44;;;-0.22;83.10
3812;BME280;1921;49.368;11.068;2024-01-30T06:51:31;98760.97;;;0.04;82.79
3812;BME280;1921;49.368;11.068;2024-01-30T06:53:57;98957.59;;;1.31;82.99
3812;BME280;1921;49.368;11.068;2024-01-30T06:56:22;98887.25;;;0.56;83.47
3812;BME280;1921;49.368;11.068;2024-01-30T06:58:49;98998.72;;;1.31;83.52
3812;BME280;1921;49.368;11.068;2024-01-30T07:01:15;98904.63;;;0.51;83.49
3812;BME280;1921;49.368;11.068;2024-01-30T07:03:41;98889.38;;;0.48;84.18
3812;BME280;1921;49.368;11.068;2024-01-30T07:06:08;99015.75;;;1.48;84.13
3812;BME280;1921;49.368;11.068;2024-01-30T07:08:34;98999.41;;;1.49;84.17
3812;BME280;1921;49.368;11.068;2024-01-30T07:10:59;98906.44;;;0.80;83.37
3812;BME280;1921;49.368;11.068;2024-01-30T07:13:25;98942.06;;;1.02;84.04
3812;BME280;1921;49.368;11.068;2024-01-30T07:15:51;98988.50;;;1.45;83.77
3812;BME280;1921;49.368;11.068;2024-01-30T07:18:17;98960.81;;;1.34;84.10
3812;BME280;1921;49.368;11.068;2024-01-30T07:20:42;98993.44;;;1.78;83.92
3812;BME280;1921;49.368;11.068;2024-01-30T07:23:12;99069.66;;;2.25;83.37
3812;BME280;1921;49.368;11.068;2024-01-30T07:25:40;99065.06;;;2.30;82.45
3812;BME280;1921;49.368;11.068;2024-01-30T07:28:08;99081.63;;;2.40;82.51
3812;BME280;1921;49.368;11.068;2024-01-30T07:30:38;99037.66;;;2.29;82.43
3812;BME280;1921;49.368;11.068;2024-01-30T07:33:04;99032.72;;;2.40;82.07
3812;BME280;1921;49.368;11.068;2024-01-30T07:35:30;99124.19;;;3.05;82.06
3812;BME280;1921;49.368;11.068;2024-01-30T07:37:56;99012.22;;;2.53;81.68
3812;BME280;1921;49.368;11.068;2024-01-30T07:40:22;98989.34;;;2.49;81.25
3812;BME280;1921;49.368;11.068;2024-01-30T07:42:48;99079.63;;;3.17;79.68
3812;BME280;1921;49.368;11.068;2024-01-30T07:45:14;99016.88;;;2.89;80.67
3812;BME280;1921;49.368;11.068;2024-01-30T07:47:40;99115.41;;;3.77;78.95
3812;BME280;1921;49.368;11.068;2024-01-30T07:50:06;99080.53;;;3.84;77.72
3812;BME280;1921;49.368;11.068;2024-01-30T07:52:32;99042.72;;;3.70;77.77
3812;BME280;1921;49.368;11.068;2024-01-30T07:54:58;99004.50;;;3.09;75.14
3812;BME280;1921;49.368;11.068;2024-01-30T07:57:24;98981.47;;;3.20;76.08
3812;BME280;1921;49.368;11.068;2024-01-30T07:59:50;99089.41;;;4.20;75.31
3812;BME280;1921;49.368;11.068;2024-01-30T08:02:16;99085.84;;;4.35;73.48
3812;BME280;1921;49.368;11.068;2024-01-30T08:04:41;99014.72;;;3.91;72.83
3812;BME280;1921;49.368;11.068;2024-01-30T08:07:07;99128.84;;;4.62;72.37
3812;BME280;1921;49.368;11.068;2024-01-30T08:09:33;98962.63;;;3.59;72.85
3812;BME280;1921;49.368;11.068;2024-01-30T08:11:59;98885.16;;;3.08;nan
3812;BME280;1921;49.368;11.068;2024-01-30T08:14:24;99010.31;;;4.19;70.89
3812;BME280;1921;49.368;11.068;2024-01-30T08:16:51;99141.34;;;4.93;69.43
3812;BME280;1921;49.368;11.068;2024-01-30T08:19:17;99010.56;;;3.89;69.72
3812;BME280;1921;49.368;11.068;2024-01-30T08:21:42;98988.66;;;3.69;71.88
3812;BME280;1921;49.368;11.068;2024-01-30T08:24:08;99029.22;;;4.32;69.30
3812;BME280;1921;49.368;11.068;2024-01-30T08:26:34;99006.53;;;3.85;71.33
3812;BME280;1921;49.368;11.068;2024-01-30T08:29:01;99117.66;;;4.48;71.57
3812;BME280;1921;49.368;11.068;2024-01-30T08:31:27;99119.97;;;4.78;71.28
3812;BME280;1921;49.368;11.068;2024-01-30T08:33:53;99032.72;;;4.44;70.64
3812;BME280;1921;49.368;11.068;2024-01-30T08:36:20;99095.09;;;5.14;70.83
3812;BME280;1921;49.368;11.068;2024-01-30T08:38:45;99097.41;;;5.06;68.98
3812;BME280;1921;49.368;11.068;2024-01-30T08:41:11;99147.44;;;5.67;68.80
3812;BME280;1921;49.368;11.068;2024-01-30T08:43:37;99027.88;;;5.14;68.76
3812;BME280;1921;49.368;11.068;2024-01-30T08:46:03;99153.34;;;6.06;67.70
3812;BME280;1921;49.368;11.068;2024-01-30T08:48:29;99135.72;;;6.11;66.19
3812;BME280;1921;49.368;11.068;2024-01-30T08:50:54;99127.78;;;6.01;65.75
3812;BME280;1921;49.368;11.068;2024-01-30T08:53:20;99138.22;;;6.24;66.33
3812;BME280;1921;49.368;11.068;2024-01-30T08:55:46;99128.16;;;6.43;65.18
3812;BME280;1921;49.368;11.068;2024-01-30T08:58:12;99122.94;;;6.67;65.46
3812;BME280;1921;49.368;11.068;2024-01-30T09:00:38;99128.72;;;6.82;63.97
3812;BME280;1921;49.368;11.068;2024-01-30T09:03:04;99126.19;;;6.58;63.25
3812;BME280;1921;49.368;11.068;2024-01-30T09:05:30;99105.16;;;6.85;63.21
3812;BME280;1921;49.368;11.068;2024-01-30T09:07:55;99126.88;;;7.17;63.59
3812;BME280;1921;49.368;11.068;2024-01-30T09:10:21;99110.56;;;7.26;62.38
3812;BME280;1921;49.368;11.068;2024-01-30T09:12:47;99101.97;;;7.26;61.82
3812;BME280;1921;49.368;11.068;2024-01-30T09:15:13;99127.16;;;7.57;61.05
3812;BME280;1921;49.368;11.068;2024-01-30T09:17:39;99138.47;;;7.79;60.42
3812;BME280;1921;49.368;11.068;2024-01-30T09:20:06;99121.00;;;7.70;60.15
3812;BME280;1921;49.368;11.068;2024-01-30T09:22:32;99113.69;;;8.07;59.17
3812;BME280;1921;49.368;11.068;2024-01-30T09:24:58;99158.28;;;8.55;59.29
3812;BME280;1921;49.368;11.068;2024-01-30T09:27:24;99143.97;;;9.12;58.95
3812;BME280;1921;49.368;11.068;2024-01-30T09:29:49;99143.91;;;9.64;57.10
3812;BME280;1921;49.368;11.068;2024-01-30T09:32:15;99086.19;;;9.59;54.12
3812;BME280;1921;49.368;11.068;2024-01-30T09:34:41;99148.63;;;10.18;52.74
3812;BME280;1921;49.368;11.068;2024-01-30T09:37:07;98994.59;;;9.34;53.88
3812;BME280;1921;49.368;11.068;2024-01-30T09:39:33;99092.63;;;10.71;51.61
3812;BME280;1921;49.368;11.068;2024-01-30T09:42:25;99103.97;;;10.89;49.81
3812;BME280;1921;49.368;11.068;2024-01-30T09:44:53;99139.38;;;11.94;48.86
3812;BME280;1921;49.368;11.068;2024-01-30T09:47:19;99130.41;;;11.96;48.04
3812;BME280;1921;49.368;11.068;2024-01-30T09:49:45;99101.88;;;11.30;49.10
3812;BME280;1921;49.368;11.068;2024-01-30T09:52:11;99118.06;;;12.42;47.46
3812;BME280;1921;49.368;11.068;2024-01-30T09:54:38;99156.72;;;12.92;46.36
3812;BME280;1921;49.368;11.068;2024-01-30T09:57:04;99119.13;;;12.75;45.83
3812;BME280;1921;49.368;11.068;2024-01-30T09:59:31;99134.22;;;12.02;46.83
3812;BME280;1921;49.368;11.068;2024-01-30T10:01:57;99100.88;;;11.68;48.67
3812;BME280;1921;49.368;11.068;2024-01-30T10:04:23;99039.03;;;11.14;48.79
3812;BME280;1921;49.368;11.068;2024-01-30T10:06:51;99099.38;;;11.38;48.83
3812;BME280;1921;49.368;11.068;2024-01-30T10:09:19;99127.22;;;11.47;50.09
3812;BME280;1921;49.368;11.068;2024-01-30T10:11:44;99042.47;;;10.77;49.87
3812;BME280;1921;49.368;11.068;2024-01-30T10:14:10;99137.50;;;11.58;50.37
3812;BME280;1921;49.368;11.068;2024-01-30T10:16:36;99107.69;;;11.51;50.14
3812;BME280;1921;49.368;11.068;2024-01-30T10:19:02;99024.69;;;11.00;49.81
3812;BME280;1921;49.368;11.068;2024-01-30T10:21:29;99027.41;;;10.71;49.98
3812;BME280;1921;49.368;11.068;2024-01-30T10:23:55;99075.28;;;10.79;50.54
3812;BME280;1921;49.368;11.068;2024-01-30T10:26:21;99096.06;;;10.81;51.47
3812;BME280;1921;49.368;11.068;2024-01-30T10:28:48;99081.41;;;10.41;51.52
3812;BME280;1921;49.368;11.068;2024-01-30T10:31:18;99115.44;;;10.69;51.54
3812;BME280;1921;49.368;11.068;2024-01-30T10:33:44;99083.34;;;10.30;52.20
3812;BME280;1921;49.368;11.068;2024-01-30T10:36:13;98937.06;;;9.47;51.88
3812;BME280;1921;49.368;11.068;2024-01-30T10:38:42;99078.66;;;10.52;51.89
3812;BME280;1921;49.368;11.068;2024-01-30T10:41:08;99076.16;;;10.61;51.14
3812;BME280;1921;49.368;11.068;2024-01-30T10:43:41;99053.19;;;10.74;51.83
3812;BME280;1921;49.368;11.068;2024-01-30T10:46:17;99060.19;;;10.73;51.45
3812;BME280;1921;49.368;11.068;2024-01-30T10:48:44;99057.91;;;10.98;50.87
3812;BME280;1921;49.368;11.068;2024-01-30T10:51:13;99078.91;;;11.33;50.40
3812;BME280;1921;49.368;11.068;2024-01-30T10:53:39;99127.34;;;11.73;50.52
3812;BME280;1921;49.368;11.068;2024-01-30T10:56:06;99109.88;;;11.83;50.60
3812;BME280;1921;49.368;11.068;2024-01-30T10:58:33;99112.13;;;11.96;50.04
3812;BME280;1921;49.368;11.068;2024-01-30T11:01:00;99071.47;;;11.84;49.82
3812;BME280;1921;49.368;11.068;2024-01-30T11:03:29;99007.50;;;11.43;49.60
3812;BME280;1921;49.368;11.068;2024-01-30T11:06:02;99011.41;;;11.39;49.46
3812;BME280;1921;49.368;11.068;2024-01-30T11:08:31;98874.63;;;10.59;49.58
3812;BME280;1921;49.368;11.068;2024-01-30T11:10:58;99065.44;;;11.38;49.60
3812;BME280;1921;49.368;11.068;2024-01-30T11:13:38;98969.78;;;11.10;50.25
3812;BME280;1921;49.368;11.068;2024-01-30T11:16:12;98989.75;;;11.28;49.82
3812;BME280;1921;49.368;11.068;2024-01-30T11:18:38;99125.63;;;12.09;49.90
3812;BME280;1921;49.368;11.068;2024-01-30T11:21:05;99039.09;;;11.67;49.87
3812;BME280;1921;49.368;11.068;2024-01-30T11:23:32;99068.28;;;11.90;49.94
3812;BME280;1921;49.368;11.068;2024-01-30T11:25:59;98950.19;;;11.41;49.51
3812;BME280;1921;49.368;11.068;2024-01-30T11:28:24;99095.41;;;12.51;49.08
3812;BME280;1921;49.368;11.068;2024-01-30T11:31:06;99027.03;;;12.02;49.65
3812;BME280;1921;49.368;11.068;2024-01-30T11:33:33;99063.47;;;12.03;50.40
3812;BME280;1921;49.368;11.068;2024-01-30T11:36:00;99061.19;;;12.00;49.86
3812;BME280;1921;49.368;11.068;2024-01-30T11:38:30;99073.25;;;12.37;50.02
3812;BME280;1921;49.368;11.068;2024-01-30T11:40:56;99048.09;;;12.00;50.11
3812;BME280;1921;49.368;11.068;2024-01-30T11:43:26;99066.91;;;12.04;50.70
3812;BME280;1921;49.368;11.068;2024-01-30T11:45:54;98950.78;;;11.89;49.66
3812;BME280;1921;49.368;11.068;2024-01-30T11:48:20;99048.44;;;12.23;49.87
3812;BME280;1921;49.368;11.068;2024-01-30T11:50:46;99081.31;;;12.70;49.61
3812;BME280;1921;49.368;11.068;2024-01-30T11:53:12;99029.44;;;12.73;48.38
3812;BME280;1921;49.368;11.068;2024-01-30T11:55:38;99064.25;;;12.39;49.07
3812;BME280;1921;49.368;11.068;2024-01-30T11:58:04;99060.00;;;12.38;49.09
3812;BME280;1921;49.368;11.068;2024-01-30T12:00:30;99014.16;;;12.08;50.53
3812;BME280;1921;49.368;11.068;2024-01-30T12:02:59;98986.19;;;12.01;49.72
3812;BME280;1921;49.368;11.068;2024-01-30T12:05:26;99031.78;;;12.24;50.12
3812;BME280;1921;49.368;11.068;2024-01-30T12:07:53;99031.69;;;12.34;50.09
3812;BME280;1921;49.368;11.068;2024-01-30T12:10:19;99002.50;;;12.21;50.16
3812;BME280;1921;49.368;11.068;2024-01-30T12:12:47;99039.44;;;12.44;50.21
3812;BME280;1921;49.368;11.068;2024-01-30T12:15:15;99003.78;;;12.43;49.74
3812;BME280;1921;49.368;11.068;2024-01-30T12:17:41;99010.63;;;12.70;49.19
3812;BME280;1921;49.368;11.068;2024-01-30T12:22:37;99049.69;;;13.23;48.61
3812;BME280;1921;49.368;11.068;2024-01-30T12:25:12;98992.59;;;13.01;48.67
3812;BME280;1921;49.368;11.068;2024-01-30T12:27:40;99022.22;;;13.01;48.21
3812;BME280;1921;49.368;11.068;2024-01-30T12:30:09;98983.41;;;12.97;48.19
3812;BME280;1921;49.368;11.068;2024-01-30T12:32:36;99014.91;;;13.05;48.25
3812;BME280;1921;49.368;11.068;2024-01-30T12:35:02;98983.69;;;12.85;48.82
3812;BME280;1921;49.368;11.068;2024-01-30T12:37:30;99019.44;;;13.03;49.07
3812;BME280;1921;49.368;11.068;2024-01-30T12:39:56;98996.69;;;12.95;48.49
3812;BME280;1921;49.368;11.068;2024-01-30T12:42:22;99019.44;;;12.94;48.63
3812;BME280;1921;49.368;11.068;2024-01-30T12:44:49;99007.88;;;12.79;48.74
3812;BME280;1921;49.368;11.068;2024-01-30T12:47:37;98938.84;;;12.38;49.47
3812;BME280;1921;49.368;11.068;2024-01-30T12:50:03;98796.69;;;11.35;49.12
3812;BME280;1921;49.368;11.068;2024-01-30T12:52:29;98707.72;;;11.02;48.53
3812;BME280;1921;49.368;11.068;2024-01-30T12:54:55;99024.34;;;12.63;49.68
3812;BME280;1921;49.368;11.068;2024-01-30T12:57:21;98811.31;;;11.46;49.84
3812;BME280;1921;49.368;11.068;2024-01-30T12:59:47;98891.66;;;12.22;49.32
3812;BME280;1921;49.368;11.068;2024-01-30T13:02:13;98987.72;;;13.06;49.34
3812;BME280;1921;49.368;11.068;2024-01-30T13:04:40;98960.34;;;12.92;48.27
3812;BME280;1921;49.368;11.068;2024-01-30T13:07:05;98899.28;;;12.41;49.15
3812;BME280;1921;49.368;11.068;2024-01-30T13:09:31;98987.09;;;13.12;49.10
3812;BME280;1921;49.368;11.068;2024-01-30T13:11:58;98948.72;;;12.86;49.32
3812;BME280;1921;49.368;11.068;2024-01-30T13:14:25;98966.25;;;12.94;48.99
3812;BME280;1921;49.368;11.068;2024-01-30T13:16:52;99011.75;;;13.43;49.08